Terminal Aerodrome Forecast
Issued by NWS Paducah, KY

Home | Current Version | Previous Version | Text Only | Print | Product List | Glossary On
Versions: 1 2 3 4 5 6 7 8 9 10 11 12
000
FTUS43 KPAH 041720
TAFPAH
TAF
KPAH 041720Z 0418/0518 21012G18KT P6SM SCT070
     FM050000 18004KT P6SM SCT250
     FM051500 20008KT P6SM SCT035 BKN070=

USA.gov is the U.S. government's official web portal to all federal, state and local government web resources and services.